createdAt,value
2022-09-16T00:00:48.297Z,6.47
2022-09-16T00:03:53.707Z,6.40
2022-09-16T00:06:55.687Z,6.22
2022-09-16T00:09:57.675Z,5.90
2022-09-16T00:12:59.604Z,5.85
2022-09-16T00:16:01.715Z,6.38
2022-09-16T00:19:03.748Z,5.60
2022-09-16T00:22:05.862Z,5.22
2022-09-16T00:25:08.065Z,5.40
2022-09-16T00:28:10.154Z,5.65
2022-09-16T00:31:12.182Z,5.72
2022-09-16T00:34:14.166Z,5.30
2022-09-16T00:37:16.148Z,5.72
2022-09-16T00:40:18.185Z,5.18
2022-09-16T00:43:20.196Z,5.10
2022-09-16T00:46:25.482Z,6.32
2022-09-16T00:49:29.243Z,5.23
2022-09-16T00:52:31.408Z,5.72
2022-09-16T00:55:35.090Z,6.38
2022-09-16T00:58:42.117Z,5.22
2022-09-16T01:01:44.991Z,5.70
2022-09-16T01:04:52.277Z,5.70
2022-09-16T01:07:54.826Z,6.00
2022-09-16T01:10:56.911Z,6.13
2022-09-16T01:14:19.501Z,6.15
2022-09-16T01:17:33.589Z,7.13
2022-09-16T01:20:44.943Z,8.13
2022-09-16T01:23:53.014Z,8.13
2022-09-16T01:26:55.390Z,8.68
2022-09-16T01:29:57.332Z,7.88
2022-09-16T01:33:00.176Z,9.10
2022-09-16T01:36:25.206Z,8.60
2022-09-16T01:39:35.095Z,8.65
2022-09-16T01:42:52.134Z,8.75
2022-09-16T01:45:56.267Z,7.95
2022-09-16T01:49:02.607Z,7.65
2022-09-16T01:52:20.403Z,7.27
2022-09-16T01:55:28.217Z,8.38
2022-09-16T01:58:39.437Z,6.88
2022-09-16T02:01:47.431Z,7.13
2022-09-16T02:04:51.428Z,7.88
2022-09-16T02:07:57.175Z,6.57
2022-09-16T02:11:00.975Z,7.10
2022-09-16T02:14:14.977Z,6.75
2022-09-16T02:17:20.123Z,7.03
2022-09-16T02:20:25.923Z,7.38
2022-09-16T02:23:33.346Z,6.37
2022-09-16T02:26:38.080Z,7.60
2022-09-16T02:29:43.180Z,7.78
2022-09-16T02:32:50.821Z,7.60
2022-09-16T02:35:54.244Z,6.43
2022-09-16T02:39:02.857Z,7.17
2022-09-16T02:42:05.339Z,6.75
2022-09-16T02:45:07.980Z,6.65
2022-09-16T02:48:15.648Z,7.15
2022-09-16T02:51:29.153Z,7.72
2022-09-16T02:54:43.983Z,6.47
2022-09-16T02:57:46.465Z,6.90
2022-09-16T03:00:49.938Z,6.63
2022-09-16T03:03:54.656Z,7.05
2022-09-16T03:06:56.757Z,6.32
2022-09-16T03:09:59.085Z,6.67
2022-09-16T03:13:08.921Z,6.50
2022-09-16T03:16:18.709Z,6.93
2022-09-16T03:19:20.670Z,6.72
2022-09-16T03:22:28.819Z,6.32
2022-09-16T03:25:39.809Z,6.30
2022-09-16T03:28:41.731Z,6.18
2022-09-16T03:31:52.637Z,6.72
2022-09-16T03:35:06.949Z,6.05
2022-09-16T03:38:10.353Z,6.38
2022-09-16T03:41:13.632Z,6.97
2022-09-16T03:44:15.575Z,6.15
2022-09-16T03:47:17.986Z,6.72
2022-09-16T03:50:20.737Z,6.55
2022-09-16T03:53:22.641Z,6.35
2022-09-16T03:56:24.792Z,6.47
2022-09-16T03:59:27.383Z,6.40
2022-09-16T04:02:29.359Z,6.72
2022-09-16T04:05:31.306Z,6.47
2022-09-16T04:08:33.350Z,7.13
2022-09-16T04:11:35.386Z,7.07
2022-09-16T04:14:37.359Z,7.18
2022-09-16T04:17:39.378Z,6.65
2022-09-16T04:20:42.261Z,6.32
2022-09-16T04:23:44.721Z,6.85
2022-09-16T04:26:46.682Z,6.77
2022-09-16T04:29:48.816Z,5.82
2022-09-16T04:32:54.529Z,6.18
2022-09-16T04:36:06.455Z,7.38
2022-09-16T04:39:08.528Z,6.50
2022-09-16T04:42:12.417Z,6.37
2022-09-16T04:45:15.207Z,5.90
2022-09-16T04:48:18.079Z,6.03
2022-09-16T04:51:20.940Z,6.15
2022-09-16T04:54:23.293Z,5.78
2022-09-16T04:57:25.229Z,6.07
2022-09-16T05:00:27.230Z,6.25
2022-09-16T05:03:29.210Z,6.93
2022-09-16T05:06:32.520Z,7.68
2022-09-16T05:09:35.474Z,7.43
2022-09-16T05:12:37.559Z,7.10
2022-09-16T05:15:39.601Z,6.85
2022-09-16T05:18:42.514Z,5.82
2022-09-16T05:21:44.673Z,7.45
2022-09-16T05:24:46.801Z,6.63
2022-09-16T05:27:48.764Z,6.43
2022-09-16T05:30:51.190Z,6.32
2022-09-16T05:33:54.948Z,6.70
2022-09-16T05:36:57.027Z,6.65
2022-09-16T05:39:59.135Z,6.95
2022-09-16T05:43:01.263Z,6.30
2022-09-16T05:46:04.091Z,6.72
2022-09-16T05:49:06.637Z,6.72
2022-09-16T05:52:11.631Z,6.63
2022-09-16T05:55:13.789Z,6.50
2022-09-16T05:58:15.852Z,5.87
2022-09-16T06:01:19.011Z,6.20
2022-09-16T06:04:21.490Z,6.93
2022-09-16T06:07:23.892Z,6.15
2022-09-16T06:10:26.544Z,7.10
2022-09-16T06:13:28.698Z,6.50
2022-09-16T06:16:33.658Z,5.53
2022-09-16T06:19:35.620Z,6.18
2022-09-16T06:22:37.670Z,5.72
2022-09-16T06:25:39.988Z,5.53
2022-09-16T06:28:42.085Z,5.93
2022-09-16T06:31:44.255Z,5.75
2022-09-16T06:34:46.384Z,6.30
2022-09-16T06:37:48.353Z,6.68
2022-09-16T06:40:50.637Z,6.28
2022-09-16T06:43:52.756Z,6.60
2022-09-16T06:46:56.319Z,6.32
2022-09-16T06:50:00.591Z,6.38
2022-09-16T06:53:04.713Z,6.05
2022-09-16T06:56:13.847Z,6.43
2022-09-16T06:59:17.012Z,6.80
2022-09-16T07:02:20.672Z,6.72
2022-09-16T07:05:22.873Z,6.72
2022-09-16T07:08:25.320Z,6.88
2022-09-16T07:11:27.471Z,7.28
2022-09-16T07:14:30.001Z,6.27
2022-09-16T07:17:31.949Z,6.43
2022-09-16T07:20:34.004Z,6.68
2022-09-16T07:23:36.741Z,7.25
2022-09-16T07:26:39.567Z,6.72
2022-09-16T07:29:41.528Z,6.43
2022-09-16T07:32:44.255Z,6.13
2022-09-16T07:35:46.558Z,7.10
2022-09-16T07:38:49.015Z,6.82
2022-09-16T07:41:51.204Z,5.57
2022-09-16T07:44:53.209Z,6.73
2022-09-16T07:47:55.209Z,6.22
2022-09-16T07:51:04.317Z,6.07
2022-09-16T07:54:08.657Z,5.95
2022-09-16T07:57:10.685Z,6.13
2022-09-16T08:00:13.108Z,5.90
2022-09-16T08:03:15.613Z,6.13
2022-09-16T08:06:22.524Z,6.10
2022-09-16T08:09:38.098Z,5.18
2022-09-16T08:12:40.833Z,5.35
2022-09-16T08:15:42.818Z,5.17
2022-09-16T08:18:45.408Z,6.60
2022-09-16T08:21:47.442Z,6.57
2022-09-16T08:24:49.503Z,5.65
2022-09-16T08:27:54.163Z,6.00
2022-09-16T08:31:01.938Z,5.80
2022-09-16T08:34:04.832Z,6.22
2022-09-16T08:37:07.161Z,6.32
2022-09-16T08:40:14.857Z,5.95
2022-09-16T08:43:24.717Z,5.80
2022-09-16T08:46:32.971Z,6.33
2022-09-16T08:49:45.622Z,7.35
2022-09-16T08:52:49.129Z,6.60
2022-09-16T08:55:51.812Z,6.85
2022-09-16T08:58:55.119Z,7.25
2022-09-16T09:02:02.908Z,6.90
2022-09-16T09:05:15.261Z,6.68
2022-09-16T09:08:20.452Z,7.22
2022-09-16T09:11:25.336Z,6.13
2022-09-16T09:14:45.973Z,6.80
2022-09-16T09:18:08.194Z,6.87
2022-09-16T09:21:13.054Z,6.32
2022-09-16T09:24:23.867Z,7.15
2022-09-16T09:27:41.193Z,6.28
2022-09-16T09:30:52.884Z,6.90
2022-09-16T09:34:24.341Z,7.60
2022-09-16T09:37:53.211Z,7.18
2022-09-16T09:40:58.786Z,7.25
2022-09-16T09:44:06.553Z,8.00
2022-09-16T09:47:11.547Z,8.60
2022-09-16T09:50:22.348Z,7.70
2022-09-16T09:53:29.556Z,7.97
2022-09-16T09:56:40.978Z,8.00
2022-09-16T09:59:55.064Z,8.70
2022-09-16T10:03:09.757Z,7.97
2022-09-16T10:06:12.228Z,7.10
2022-09-16T10:09:15.209Z,7.15
2022-09-16T10:12:26.464Z,8.25
2022-09-16T10:15:29.769Z,7.78
2022-09-16T10:18:32.564Z,7.13
2022-09-16T10:21:54.222Z,7.73
2022-09-16T10:25:03.833Z,6.35
2022-09-16T10:28:17.280Z,6.78
2022-09-16T10:31:19.459Z,6.25
2022-09-16T10:34:48.360Z,6.93
2022-09-16T10:37:57.059Z,6.67
2022-09-16T10:41:03.083Z,6.82
2022-09-16T10:44:16.625Z,6.68
2022-09-16T10:47:24.320Z,6.15
2022-09-16T10:50:26.870Z,6.78
2022-09-16T10:53:32.442Z,7.60
2022-09-16T10:56:46.299Z,7.25
2022-09-16T11:00:02.035Z,6.78
2022-09-16T11:03:18.024Z,7.50
2022-09-16T11:06:19.969Z,6.57
2022-09-16T11:09:22.034Z,6.10
2022-09-16T11:12:42.485Z,6.22
2022-09-16T11:15:59.844Z,6.65
2022-09-16T11:19:01.954Z,5.78
2022-09-16T11:22:13.547Z,6.43
2022-09-16T11:25:21.792Z,6.60
2022-09-16T11:28:26.691Z,5.80
2022-09-16T11:31:45.191Z,6.35
2022-09-16T11:34:47.403Z,6.30
2022-09-16T11:37:54.526Z,6.45
2022-09-16T11:41:18.601Z,6.50
2022-09-16T11:44:27.367Z,5.90
2022-09-16T11:47:29.358Z,6.38
2022-09-16T11:50:46.683Z,5.38
2022-09-16T11:54:07.331Z,6.43
2022-09-16T11:57:14.570Z,6.10
2022-09-16T12:00:19.200Z,5.20
2022-09-16T12:03:59.898Z,5.90
2022-09-16T12:07:10.092Z,5.82
2022-09-16T12:10:12.805Z,4.85
2022-09-16T12:13:20.834Z,5.07
2022-09-16T12:16:45.774Z,5.07
2022-09-16T12:19:51.239Z,5.65
2022-09-16T12:22:55.987Z,5.60
2022-09-16T12:26:16.458Z,5.72
2022-09-16T12:29:38.697Z,5.27
2022-09-16T12:32:43.789Z,4.88
2022-09-16T12:35:51.564Z,4.68
2022-09-16T12:38:53.684Z,4.50
2022-09-16T12:42:01.731Z,3.95
2022-09-16T12:45:06.442Z,3.60
2022-09-16T12:48:14.495Z,4.55
2022-09-16T12:51:35.108Z,3.75
2022-09-16T12:55:07.056Z,3.38
2022-09-16T12:58:48.890Z,3.60
2022-09-16T13:01:56.617Z,3.33
2022-09-16T13:05:10.133Z,2.97
2022-09-16T13:08:23.263Z,3.25
2022-09-16T13:14:51.023Z,3.38
2022-09-16T13:17:53.351Z,3.20
2022-09-16T13:20:59.559Z,2.53
2022-09-16T13:24:11.116Z,3.05
2022-09-16T13:27:24.522Z,3.20
2022-09-16T13:30:34.208Z,3.28
2022-09-16T13:33:36.145Z,3.27
2022-09-16T13:36:38.100Z,2.80
2022-09-16T13:39:40.081Z,3.17
2022-09-16T13:42:42.157Z,2.97
2022-09-16T13:45:45.051Z,3.30
2022-09-16T13:48:55.106Z,3.27
2022-09-16T13:51:57.073Z,3.38
2022-09-16T13:55:11.317Z,3.70
2022-09-16T13:58:16.391Z,3.25
2022-09-16T14:01:18.406Z,4.00
2022-09-16T14:04:41.186Z,3.50
2022-09-16T14:08:01.854Z,3.53
2022-09-16T14:11:06.888Z,3.35
2022-09-16T14:14:30.090Z,3.30
2022-09-16T14:21:20.055Z,2.77
2022-09-16T14:24:21.990Z,3.28
2022-09-16T14:27:26.688Z,3.22
2022-09-16T14:30:28.709Z,2.88
2022-09-16T14:33:38.780Z,2.75
2022-09-16T14:36:40.861Z,2.27
2022-09-16T14:39:43.969Z,2.80
2022-09-16T14:42:56.456Z,2.63
2022-09-16T14:49:09.474Z,2.42
2022-09-16T14:52:17.784Z,2.50
2022-09-16T14:55:20.896Z,2.10
2022-09-16T14:58:23.629Z,2.05
2022-09-16T15:01:28.097Z,1.80
2022-09-16T15:04:32.985Z,2.20
2022-09-16T15:07:46.219Z,2.40
2022-09-16T15:11:01.606Z,2.05
2022-09-16T15:14:06.261Z,2.30
2022-09-16T15:17:08.412Z,2.05
2022-09-16T15:20:21.865Z,2.10
2022-09-16T15:23:25.441Z,2.27
2022-09-16T15:26:44.561Z,2.25
2022-09-16T15:29:49.227Z,2.00
2022-09-16T15:32:51.207Z,2.15
2022-09-16T15:35:53.204Z,2.10
2022-09-16T15:38:58.345Z,2.17
2022-09-16T15:42:09.311Z,1.65
2022-09-16T15:45:17.810Z,1.90
2022-09-16T15:48:21.063Z,1.38
2022-09-16T15:51:56.835Z,1.33
2022-09-16T15:54:53.338Z,1.30
2022-09-16T15:58:05.428Z,1.10
2022-09-16T16:01:10.483Z,1.48
2022-09-16T16:04:14.325Z,1.20
2022-09-16T16:07:36.230Z,1.20
2022-09-16T16:10:40.083Z,1.47
2022-09-16T16:13:42.609Z,1.42
2022-09-16T16:17:08.548Z,1.42
2022-09-16T16:20:06.775Z,1.33
2022-09-16T16:23:09.154Z,1.05
2022-09-16T16:26:11.538Z,1.47
2022-09-16T16:29:13.452Z,1.63
2022-09-16T16:32:16.083Z,2.90
2022-09-16T16:35:18.302Z,3.70
2022-09-16T16:38:20.503Z,3.17
2022-09-16T16:41:23.418Z,2.30
2022-09-16T16:44:25.664Z,2.38
2022-09-16T16:47:27.650Z,2.67
2022-09-16T16:50:29.603Z,2.70
2022-09-16T16:53:31.854Z,4.00
2022-09-16T16:56:33.923Z,5.03
2022-09-16T16:59:36.207Z,5.03
2022-09-16T17:02:38.247Z,3.88
2022-09-16T17:05:40.259Z,3.75
2022-09-16T17:08:42.229Z,4.90
2022-09-16T17:11:54.528Z,4.87
2022-09-16T17:14:56.473Z,3.42
2022-09-16T17:17:58.404Z,2.67
2022-09-16T17:21:04.628Z,1.95
2022-09-16T17:24:07.141Z,2.00
2022-09-16T17:27:09.065Z,1.80
2022-09-16T17:30:11.363Z,1.60
2022-09-16T17:33:13.417Z,1.77
2022-09-16T17:36:16.523Z,2.40
2022-09-16T17:39:20.631Z,1.50
2022-09-16T17:42:22.580Z,1.70
2022-09-16T17:45:24.553Z,1.58
2022-09-16T17:48:26.621Z,2.17
2022-09-16T17:51:28.858Z,1.30
2022-09-16T17:54:30.932Z,1.52
2022-09-16T17:57:33.467Z,1.83
2022-09-16T18:00:36.533Z,1.50
2022-09-16T18:03:39.200Z,1.70
2022-09-16T18:06:42.665Z,2.17
2022-09-16T18:09:44.609Z,2.17
2022-09-16T18:12:46.812Z,2.33
2022-09-16T18:15:48.999Z,2.30
2022-09-16T18:18:52.140Z,2.28
2022-09-16T18:21:54.072Z,2.10
2022-09-16T18:24:56.016Z,1.77
2022-09-16T18:27:57.972Z,1.80
2022-09-16T18:31:07.056Z,1.95
2022-09-16T18:34:09.430Z,1.73
2022-09-16T18:37:11.473Z,1.88
2022-09-16T18:40:13.520Z,2.20
2022-09-16T18:43:15.519Z,2.57
2022-09-16T18:46:20.863Z,2.22
2022-09-16T18:49:27.950Z,2.50
2022-09-16T18:52:29.900Z,1.80
2022-09-16T18:55:31.848Z,2.50
2022-09-16T18:58:33.799Z,2.23
2022-09-16T19:01:37.250Z,2.45
2022-09-16T19:04:40.593Z,2.20
2022-09-16T19:07:42.603Z,2.58
2022-09-16T19:10:44.642Z,2.65
2022-09-16T19:13:46.709Z,2.17
2022-09-16T19:16:48.690Z,2.30
2022-09-16T19:19:51.081Z,2.42
2022-09-16T19:22:53.003Z,1.75
2022-09-16T19:26:00.599Z,1.40
2022-09-16T19:29:03.425Z,2.10
2022-09-16T19:32:05.662Z,1.80
2022-09-16T19:35:07.800Z,1.90
2022-09-16T19:38:10.253Z,1.80
2022-09-16T19:41:12.631Z,1.67
2022-09-16T19:44:15.745Z,2.10
2022-09-16T19:47:17.676Z,1.67
2022-09-16T19:50:19.609Z,1.30
2022-09-16T19:53:21.838Z,2.20
2022-09-16T19:56:25.203Z,1.83
2022-09-16T19:59:27.173Z,1.63
2022-09-16T20:02:29.225Z,2.00
2022-09-16T20:05:31.340Z,2.47
2022-09-16T20:08:33.812Z,2.00
2022-09-16T20:11:36.625Z,2.67
2022-09-16T20:14:38.872Z,1.60
2022-09-16T20:17:40.942Z,1.60
2022-09-16T20:20:45.381Z,2.25
2022-09-16T20:23:51.133Z,1.95
2022-09-16T20:26:53.882Z,1.75
2022-09-16T20:29:55.835Z,1.30
2022-09-16T20:32:57.793Z,1.75
2022-09-16T20:36:03.797Z,2.03
2022-09-16T20:39:06.596Z,1.83
2022-09-16T20:42:08.519Z,1.60
2022-09-16T20:45:10.914Z,1.97
2022-09-16T20:48:12.854Z,1.75
2022-09-16T20:51:16.194Z,1.73
2022-09-16T20:54:18.134Z,1.67
2022-09-16T20:57:20.503Z,1.80
2022-09-16T21:00:22.564Z,1.70
2022-09-16T21:03:24.527Z,1.50
2022-09-16T21:06:27.380Z,2.67
2022-09-16T21:09:29.581Z,1.95
2022-09-16T21:12:31.684Z,1.70
2022-09-16T21:15:33.599Z,1.63
2022-09-16T21:18:35.630Z,1.95
2022-09-16T21:21:39.005Z,1.70
2022-09-16T21:24:41.544Z,1.80
2022-09-16T21:27:43.459Z,1.70
2022-09-16T21:30:45.434Z,1.57
2022-09-16T21:33:51.811Z,1.38
2022-09-16T21:36:53.853Z,1.35
2022-09-16T21:39:55.825Z,1.60
2022-09-16T21:42:57.812Z,1.60
2022-09-16T21:46:00.538Z,1.23
2022-09-16T21:49:03.185Z,1.17
2022-09-16T21:52:05.122Z,1.60
2022-09-16T21:55:07.299Z,1.67
2022-09-16T21:58:09.490Z,1.50
2022-09-16T22:01:11.599Z,1.30
2022-09-16T22:04:15.382Z,1.90
2022-09-16T22:07:17.348Z,2.33
2022-09-16T22:10:19.322Z,1.55
2022-09-16T22:13:21.516Z,2.28
2022-09-16T22:16:28.059Z,1.87
2022-09-16T22:19:30.171Z,1.95
2022-09-16T22:22:32.389Z,2.45
2022-09-16T22:25:37.446Z,2.13
2022-09-16T22:28:39.938Z,3.35
2022-09-16T22:31:42.149Z,2.47
2022-09-16T22:34:44.138Z,2.40
2022-09-16T22:37:48.197Z,2.47
2022-09-16T22:40:50.158Z,2.67
2022-09-16T22:43:53.006Z,3.08
2022-09-16T22:46:54.980Z,2.93
2022-09-16T22:49:56.944Z,2.60
2022-09-16T22:52:58.871Z,3.15
2022-09-16T22:56:02.656Z,2.97
2022-09-16T22:59:05.547Z,3.22
2022-09-16T23:02:07.670Z,3.60
2022-09-16T23:05:10.441Z,3.03
2022-09-16T23:08:12.377Z,4.10
2022-09-16T23:11:16.378Z,3.53
2022-09-16T23:14:24.765Z,4.07
2022-09-16T23:17:26.766Z,4.07
2022-09-16T23:20:28.787Z,3.17
2022-09-16T23:23:31.164Z,4.07
2022-09-16T23:26:34.449Z,4.05
2022-09-16T23:29:36.377Z,3.97
2022-09-16T23:32:39.742Z,4.17
2022-09-16T23:35:49.940Z,4.25
2022-09-16T23:38:52.152Z,4.57
2022-09-16T23:41:54.103Z,4.72
2022-09-16T23:44:56.090Z,4.97
2022-09-16T23:47:58.057Z,4.87
2022-09-16T23:51:00.029Z,5.00
2022-09-16T23:54:02.040Z,5.20
2022-09-16T23:57:04.116Z,5.22
